Fantasia — ICJY — position and weather

sailwx.info

Track history (hours):
 
Tides and Currents Weather Stations Pressure Air Temp Water Temp Dewpoint Dewpoint Depression Visibility Wind Speed Wind Dir Waves Ship Positions

Fantasia

Last reported at 2014-Jun-18 07:33 UTC. Time now 2014-Jul-25 15:57 UTC.
Position N 50°13' W 002°01'.
Warning: this ship's position is 37 days out of date.

Length 183 m; draft 11.3 m.

Type: Tanker. MMSI: 247279600.

Date/timePositionNaut miles runAvg speedWind from/ knotsBaromVisibWave heightAir tempDewpointWater temp
2014-Jun-18 07:33N 50°13' W 002°01'1515.4
2014-Jun-18 06:34N 50°20' W 001°40'1615.9
2014-Jun-18 05:33N 50°28' W 001°18'1414.0
2014-Jun-18 04:33N 50°36' W 000°60'9 9.2
2014-Jun-18 03:33N 50°45' W 001°06'9 9.0
2014-Jun-18 02:33N 50°49' W 001°18'2 1.9
2014-Jun-18 01:32N 50°51' W 001°20'0 0.0
2014-Jun-18 00:32N 50°51' W 001°20'0 0.0
2014-Jun-17 23:32N 50°51' W 001°20'0 0.0
2014-Jun-17 22:32N 50°51' W 001°20'0 0.0
2014-Jun-17 21:32N 50°51' W 001°20'0 0.0
2014-Jun-17 20:32N 50°51' W 001°20'0 0.0
2014-Jun-17 19:32N 50°51' W 001°20'0 0.0
2014-Jun-17 18:32N 50°51' W 001°20'0 0.0
2014-Jun-17 17:32N 50°51' W 001°20'0 0.0
2014-Jun-17 16:32N 50°51' W 001°20'0 0.0
2014-Jun-17 15:32N 50°51' W 001°20'0 0.0
2014-Jun-17 14:32N 50°51' W 001°20'0 0.0
2014-Jun-17 13:32N 50°51' W 001°20'0 0.0
2014-Jun-17 12:32N 50°51' W 001°20'0 0.0
2014-Jun-17 11:32N 50°51' W 001°20'0 0.0
2014-Jun-17 10:32N 50°51' W 001°20'0 0.0
2014-Jun-17 09:32N 50°51' W 001°20'0 0.0
2014-Jun-17 08:32N 50°51' W 001°20'0 0.0
2014-Jun-17 07:32N 50°51' W 001°20'0 0.0
2014-Jun-17 06:32N 50°51' W 001°20'0 0.0
2014-Jun-17 05:32N 50°51' W 001°20'0 0.0
2014-Jun-17 04:32N 50°51' W 001°20'0 0.0
2014-Jun-17 03:32N 50°51' W 001°20'0 0.0
2014-Jun-17 02:32N 50°51' W 001°20'0 0.0
2014-Jun-17 01:32N 50°51' W 001°20'0 0.0
2014-Jun-17 00:32N 50°51' W 001°20'0 0.0
2014-Jun-16 23:32N 50°51' W 001°20'0 0.0
2014-Jun-16 22:32N 50°51' W 001°20'0 0.0
2014-Jun-16 21:32N 50°51' W 001°20'0 0.0
2014-Jun-16 20:32N 50°51' W 001°20'0 0.0
2014-Jun-16 19:31N 50°51' W 001°20'0 0.0
2014-Jun-16 18:32N 50°51' W 001°20'0 0.0
2014-Jun-16 17:32N 50°51' W 001°20'0 0.0
2014-Jun-16 16:32N 50°51' W 001°20'0 0.0
2014-Jun-16 15:32N 50°51' W 001°20'0 0.0
2014-Jun-16 14:32N 50°51' W 001°20'0 0.0
2014-Jun-16 13:32N 50°51' W 001°20'0 0.0
2014-Jun-16 12:32N 50°51' W 001°20'0 0.0
2014-Jun-16 11:32N 50°51' W 001°20'0 0.0
2014-Jun-16 10:32N 50°51' W 001°20'0 0.0
2014-Jun-16 09:32N 50°51' W 001°20'0 0.0
2014-Jun-16 08:32N 50°51' W 001°20'0 0.0
2014-Jun-16 07:32N 50°51' W 001°20'0 0.0
2014-Jun-16 06:32N 50°51' W 001°20'0 0.0
2014-Jun-16 05:32N 50°51' W 001°20'0 0.0
2014-Jun-16 04:32N 50°51' W 001°20'0 0.0
2014-Jun-16 03:32N 50°51' W 001°20'0 0.0
2014-Jun-16 02:32N 50°51' W 001°20'0 0.0
2014-Jun-16 01:32N 50°51' W 001°20'0 0.0
2014-Jun-16 00:32N 50°51' W 001°20'0 0.0
2014-Jun-15 23:32N 50°51' W 001°20'0 0.0
2014-Jun-15 22:32N 50°51' W 001°20'0 0.0
2014-Jun-15 21:32N 50°51' W 001°20'0 0.0
2014-Jun-15 20:32N 50°51' W 001°20'0 0.0
2014-Jun-15 19:32N 50°51' W 001°20'0 0.0
2014-Jun-15 18:32N 50°51' W 001°20'0 0.0
2014-Jun-15 17:32N 50°51' W 001°20'0 0.0
2014-Jun-15 16:32N 50°51' W 001°20'0 0.0
2014-Jun-15 15:32N 50°51' W 001°20'0 0.0
2014-Jun-15 14:32N 50°51' W 001°20'0 0.0
2014-Jun-15 13:32N 50°51' W 001°20'0 0.0
2014-Jun-15 12:32N 50°51' W 001°20'0 0.0
2014-Jun-15 11:32N 50°51' W 001°20'0 0.0
2014-Jun-15 10:32N 50°51' W 001°20'0 0.1
2014-Jun-15 09:33N 50°51' W 001°20'6 5.8
2014-Jun-15 08:33N 50°46' W 001°14'1110.8
2014-Jun-15 07:33N 50°41' W 000°59'3 2.6
2014-Jun-15 06:32N 50°39' W 001°01'0 0.1
2014-Jun-15 05:32N 50°39' W 001°01'0 0.0
2014-Jun-15 04:32N 50°39' W 001°01'0 0.0
2014-Jun-15 03:32N 50°39' W 001°01'0 0.0
2014-Jun-15 02:32N 50°39' W 001°01'0 0.0
2014-Jun-15 01:32N 50°39' W 001°01'0 0.0
2014-Jun-15 00:32N 50°39' W 001°01'0 0.2
2014-Jun-14 23:32N 50°39' W 001°01'0 0.1
2014-Jun-14 22:32N 50°39' W 001°00'0 0.0
2014-Jun-14 21:32N 50°39' W 001°00'0 0.0
2014-Jun-14 20:32N 50°39' W 001°00'0 0.0
2014-Jun-14 19:32N 50°39' W 001°00'0 0.0
2014-Jun-14 18:32N 50°39' W 001°00'0 0.2
2014-Jun-14 17:32N 50°39' W 001°01'0 0.1
2014-Jun-14 16:32N 50°39' W 001°01'0 0.0
2014-Jun-14 15:32N 50°39' W 001°01'0 0.0
2014-Jun-14 14:32N 50°39' W 001°01'0 0.0
2014-Jun-14 13:32N 50°39' W 001°01'0 0.0
2014-Jun-14 12:32N 50°39' W 001°01'0 0.1
2014-Jun-14 11:32N 50°39' W 001°01'0 0.1
2014-Jun-14 10:32N 50°39' W 001°00'0 0.0
2014-Jun-14 09:32N 50°39' W 001°00'0 0.0
2014-Jun-14 08:32N 50°39' W 001°00'0 0.0
2014-Jun-14 07:32N 50°39' W 001°00'0 0.0
2014-Jun-14 06:32N 50°39' W 001°00'0 0.2
2014-Jun-14 05:32N 50°39' W 001°01'0 0.1
2014-Jun-14 04:32N 50°39' W 001°01'0 0.0
2014-Jun-14 03:32N 50°39' W 001°01'0 0.0
2014-Jun-14 02:29N 50°39' W 001°01'0 0.1
2014-Jun-14 01:32N 50°39' W 001°01'0 0.0
2014-Jun-14 00:32N 50°39' W 001°01'0 0.1
2014-Jun-13 23:32N 50°39' W 001°00'0 0.2
2014-Jun-13 22:32N 50°39' W 001°00'0 0.1
2014-Jun-13 21:32N 50°39' W 001°00'0 0.0
2014-Jun-13 20:29N 50°39' W 001°00'0 0.0
2014-Jun-13 19:29N 50°39' W 001°00'0 0.0
2014-Jun-13 18:32N 50°39' W 001°00'0 0.0
2014-Jun-13 17:32N 50°39' W 001°00'0 0.2
2014-Jun-13 16:32N 50°39' W 001°01'0 0.1
2014-Jun-13 15:32N 50°39' W 001°01'0 0.0
2014-Jun-13 14:32N 50°39' W 001°01'0 0.0
2014-Jun-13 13:32N 50°39' W 001°01'0 0.0
2014-Jun-13 12:32N 50°39' W 001°01'0 0.0
2014-Jun-13 11:32N 50°39' W 001°01'0 0.1
2014-Jun-13 10:32N 50°39' W 001°00'0 0.1
2014-Jun-13 09:32N 50°39' W 001°00'0 0.0
2014-Jun-13 08:32N 50°39' W 001°00'0 0.0
2014-Jun-13 07:32N 50°39' W 001°00'0 0.0
2014-Jun-13 06:32N 50°39' W 001°00'0 0.0
2014-Jun-13 05:32N 50°39' W 001°00'0 0.2
2014-Jun-13 04:32N 50°39' W 001°00'0 0.1
2014-Jun-13 03:32N 50°39' W 001°01'0 0.0
2014-Jun-13 02:32N 50°39' W 001°01'0 0.0
2014-Jun-13 01:32N 50°39' W 001°01'0 0.0
2014-Jun-13 00:32N 50°39' W 001°01'0 0.0
2014-Jun-12 23:32N 50°39' W 001°01'0 0.1
2014-Jun-12 22:32N 50°39' W 001°01'0 0.1
2014-Jun-12 21:33N 50°39' W 001°00'0 0.0
2014-Jun-12 20:32N 50°39' W 001°00'0 0.0
2014-Jun-12 19:32N 50°39' W 001°00'0 0.0
2014-Jun-12 18:32N 50°39' W 001°00'0 0.0
2014-Jun-12 17:32N 50°39' W 001°00'0 0.1
2014-Jun-12 16:29N 50°39' W 001°00'0 0.2
2014-Jun-12 15:32N 50°39' W 001°01'0 0.0
2014-Jun-12 14:32N 50°39' W 001°01'0 0.0
2014-Jun-12 13:32N 50°39' W 001°01'0 0.0
2014-Jun-12 12:32N 50°39' W 001°01'0 0.0
2014-Jun-12 11:32N 50°39' W 001°01'0 0.0
2014-Jun-12 10:32N 50°39' W 001°01'0 0.2
2014-Jun-12 09:32N 50°39' W 001°00'0 0.0
2014-Jun-12 08:32N 50°39' W 001°00'0 0.0
2014-Jun-12 07:32N 50°39' W 001°00'0 0.0
2014-Jun-12 06:32N 50°39' W 001°00'0 0.0
2014-Jun-12 05:32N 50°39' W 001°00'0 0.0
2014-Jun-12 04:32N 50°39' W 001°00'0 0.1
2014-Jun-12 03:32N 50°39' W 001°00'0 0.1
2014-Jun-12 02:32N 50°39' W 001°01'0 0.0
2014-Jun-12 01:32N 50°39' W 001°01'0 0.0
2014-Jun-12 00:32N 50°39' W 001°01'0 0.0
2014-Jun-11 23:32N 50°39' W 001°01'0 0.0
2014-Jun-11 22:32N 50°39' W 001°01'0 0.2
2014-Jun-11 21:32N 50°39' W 001°00'0 0.0
2014-Jun-11 20:26N 50°39' W 001°00'0 0.0
2014-Jun-11 19:32N 50°39' W 001°00'0 0.0
2014-Jun-11 18:32N 50°39' W 001°00'0 0.0
2014-Jun-11 17:32N 50°39' W 001°00'0 0.0
2014-Jun-11 16:29N 50°39' W 001°00'0 0.0
2014-Jun-11 15:29N 50°39' W 001°00'0 0.1
2014-Jun-11 13:32N 50°39' W 001°01'0 0.0
2014-Jun-11 12:32N 50°39' W 001°01'0 0.0
2014-Jun-11 11:29N 50°39' W 001°01'0 0.0
2014-Jun-11 10:32N 50°39' W 001°01'0 0.1
2014-Jun-11 09:29N 50°39' W 001°00'0 0.1
2014-Jun-11 08:32N 50°39' W 001°00'0 0.0
2014-Jun-11 07:32N 50°39' W 001°00'0 0.0
2014-Jun-11 06:32N 50°39' W 001°00'0 0.0
2014-Jun-11 05:32N 50°39' W 001°00'0 0.0
2014-Jun-11 04:32N 50°39' W 001°00'0 0.0
2014-Jun-11 03:32N 50°39' W 001°00'0 0.1
2014-Jun-11 02:32N 50°39' W 001°00'0 0.2
2014-Jun-11 01:32N 50°39' W 001°01'0 0.0
2014-Jun-11 00:32N 50°39' W 001°01'0 0.0
2014-Jun-10 23:32N 50°39' W 001°01'0 0.0
2014-Jun-10 22:32N 50°39' W 001°01'0 0.1
2014-Jun-10 21:32N 50°39' W 001°01'0 0.2
2014-Jun-10 20:32N 50°39' W 001°00'0 0.0
2014-Jun-10 19:33N 50°39' W 001°00'0 0.0
2014-Jun-10 18:32N 50°39' W 001°00'0 0.0
2014-Jun-10 17:32N 50°39' W 001°00'0 0.0
2014-Jun-10 16:32N 50°39' W 001°00'0 0.0
2014-Jun-10 15:32N 50°39' W 001°00'0 0.0
2014-Jun-10 14:32N 50°39' W 001°00'0 0.2
2014-Jun-10 13:32N 50°39' W 001°01'0 0.0
2014-Jun-10 12:32N 50°39' W 001°01'0 0.0
2014-Jun-10 11:32N 50°39' W 001°01'0 0.0
2014-Jun-10 10:32N 50°39' W 001°01'0 0.1
2014-Jun-10 09:32N 50°39' W 001°01'0 0.2
2014-Jun-10 08:32N 50°39' W 001°00'0 0.0
2014-Jun-10 07:32N 50°39' W 001°00'0 0.0
2014-Jun-10 06:32N 50°39' W 001°00'0 0.0
2014-Jun-10 03:32N 50°39' W 001°00'0 0.0
2014-Jun-10 02:32N 50°39' W 001°00'0 0.2
2014-Jun-10 01:32N 50°39' W 001°01'0 0.0
2014-Jun-10 00:32N 50°39' W 001°01'0 0.0
2014-Jun-09 23:32N 50°39' W 001°01'0 0.0
2014-Jun-09 22:32N 50°39' W 001°01'0 0.0
2014-Jun-09 21:32N 50°39' W 001°01'0 0.2
2014-Jun-09 20:33N 50°39' W 001°00'0 0.1
2014-Jun-09 19:32N 50°39' W 001°00'0 0.0
2014-Jun-09 18:32N 50°39' W 001°00'0 0.0
2014-Jun-09 17:32N 50°39' W 001°00'1 0.9
2014-Jun-09 16:34N 50°39' W 000°59'8 8.0
2014-Jun-09 15:33N 50°31' W 001°05'1515.2
2014-Jun-09 14:33N 50°29' W 001°28'1414.0
2014-Jun-09 13:33N 50°25' W 001°49'1313.2
2014-Jun-09 12:33N 50°21' W 002°09'1312.5
2014-Jun-09 11:32N 50°18' W 002°29'  
Track history (hours):
 
Tides and Currents Weather Stations Pressure Air Temp Water Temp Dewpoint Dewpoint Depression Visibility Wind Speed Wind Dir Waves Ship Positions

Fantasia

Last reported at 2014-Jun-18 07:33 UTC. Time now 2014-Jul-25 15:57 UTC.
Position N 50°13' W 002°01'.
Warning: this ship's position is 37 days out of date.

Length 183 m; draft 11.3 m.

Type: Tanker. MMSI: 247279600.

Date/timePositionNaut miles runAvg speedWind from/ knotsBaromVisibWave heightAir tempDewpointWater temp
2014-Jun-18 07:33N 50°13' W 002°01'1515.4
2014-Jun-18 06:34N 50°20' W 001°40'1615.9
2014-Jun-18 05:33N 50°28' W 001°18'1414.0
2014-Jun-18 04:33N 50°36' W 000°60'9 9.2
2014-Jun-18 03:33N 50°45' W 001°06'9 9.0
2014-Jun-18 02:33N 50°49' W 001°18'2 1.9
2014-Jun-18 01:32N 50°51' W 001°20'0 0.0
2014-Jun-18 00:32N 50°51' W 001°20'0 0.0
2014-Jun-17 23:32N 50°51' W 001°20'0 0.0
2014-Jun-17 22:32N 50°51' W 001°20'0 0.0
2014-Jun-17 21:32N 50°51' W 001°20'0 0.0
2014-Jun-17 20:32N 50°51' W 001°20'0 0.0
2014-Jun-17 19:32N 50°51' W 001°20'0 0.0
2014-Jun-17 18:32N 50°51' W 001°20'0 0.0
2014-Jun-17 17:32N 50°51' W 001°20'0 0.0
2014-Jun-17 16:32N 50°51' W 001°20'0 0.0
2014-Jun-17 15:32N 50°51' W 001°20'0 0.0
2014-Jun-17 14:32N 50°51' W 001°20'0 0.0
2014-Jun-17 13:32N 50°51' W 001°20'0 0.0
2014-Jun-17 12:32N 50°51' W 001°20'0 0.0
2014-Jun-17 11:32N 50°51' W 001°20'0 0.0
2014-Jun-17 10:32N 50°51' W 001°20'0 0.0
2014-Jun-17 09:32N 50°51' W 001°20'0 0.0
2014-Jun-17 08:32N 50°51' W 001°20'0 0.0
2014-Jun-17 07:32N 50°51' W 001°20'0 0.0
2014-Jun-17 06:32N 50°51' W 001°20'0 0.0
2014-Jun-17 05:32N 50°51' W 001°20'0 0.0
2014-Jun-17 04:32N 50°51' W 001°20'0 0.0
2014-Jun-17 03:32N 50°51' W 001°20'0 0.0
2014-Jun-17 02:32N 50°51' W 001°20'0 0.0
2014-Jun-17 01:32N 50°51' W 001°20'0 0.0
2014-Jun-17 00:32N 50°51' W 001°20'0 0.0
2014-Jun-16 23:32N 50°51' W 001°20'0 0.0
2014-Jun-16 22:32N 50°51' W 001°20'0 0.0
2014-Jun-16 21:32N 50°51' W 001°20'0 0.0
2014-Jun-16 20:32N 50°51' W 001°20'0 0.0
2014-Jun-16 19:31N 50°51' W 001°20'0 0.0
2014-Jun-16 18:32N 50°51' W 001°20'0 0.0
2014-Jun-16 17:32N 50°51' W 001°20'0 0.0
2014-Jun-16 16:32N 50°51' W 001°20'0 0.0
2014-Jun-16 15:32N 50°51' W 001°20'0 0.0
2014-Jun-16 14:32N 50°51' W 001°20'0 0.0
2014-Jun-16 13:32N 50°51' W 001°20'0 0.0
2014-Jun-16 12:32N 50°51' W 001°20'0 0.0
2014-Jun-16 11:32N 50°51' W 001°20'0 0.0
2014-Jun-16 10:32N 50°51' W 001°20'0 0.0
2014-Jun-16 09:32N 50°51' W 001°20'0 0.0
2014-Jun-16 08:32N 50°51' W 001°20'0 0.0
2014-Jun-16 07:32N 50°51' W 001°20'0 0.0
2014-Jun-16 06:32N 50°51' W 001°20'0 0.0
2014-Jun-16 05:32N 50°51' W 001°20'0 0.0
2014-Jun-16 04:32N 50°51' W 001°20'0 0.0
2014-Jun-16 03:32N 50°51' W 001°20'0 0.0
2014-Jun-16 02:32N 50°51' W 001°20'0 0.0
2014-Jun-16 01:32N 50°51' W 001°20'0 0.0
2014-Jun-16 00:32N 50°51' W 001°20'0 0.0
2014-Jun-15 23:32N 50°51' W 001°20'0 0.0
2014-Jun-15 22:32N 50°51' W 001°20'0 0.0
2014-Jun-15 21:32N 50°51' W 001°20'0 0.0
2014-Jun-15 20:32N 50°51' W 001°20'0 0.0
2014-Jun-15 19:32N 50°51' W 001°20'0 0.0
2014-Jun-15 18:32N 50°51' W 001°20'0 0.0
2014-Jun-15 17:32N 50°51' W 001°20'0 0.0
2014-Jun-15 16:32N 50°51' W 001°20'0 0.0
2014-Jun-15 15:32N 50°51' W 001°20'0 0.0
2014-Jun-15 14:32N 50°51' W 001°20'0 0.0
2014-Jun-15 13:32N 50°51' W 001°20'0 0.0
2014-Jun-15 12:32N 50°51' W 001°20'0 0.0
2014-Jun-15 11:32N 50°51' W 001°20'0 0.0
2014-Jun-15 10:32N 50°51' W 001°20'0 0.1
2014-Jun-15 09:33N 50°51' W 001°20'6 5.8
2014-Jun-15 08:33N 50°46' W 001°14'1110.8
2014-Jun-15 07:33N 50°41' W 000°59'3 2.6
2014-Jun-15 06:32N 50°39' W 001°01'0 0.1
2014-Jun-15 05:32N 50°39' W 001°01'0 0.0
2014-Jun-15 04:32N 50°39' W 001°01'0 0.0
2014-Jun-15 03:32N 50°39' W 001°01'0 0.0
2014-Jun-15 02:32N 50°39' W 001°01'0 0.0
2014-Jun-15 01:32N 50°39' W 001°01'0 0.0
2014-Jun-15 00:32N 50°39' W 001°01'0 0.2
2014-Jun-14 23:32N 50°39' W 001°01'0 0.1
2014-Jun-14 22:32N 50°39' W 001°00'0 0.0
2014-Jun-14 21:32N 50°39' W 001°00'0 0.0
2014-Jun-14 20:32N 50°39' W 001°00'0 0.0
2014-Jun-14 19:32N 50°39' W 001°00'0 0.0
2014-Jun-14 18:32N 50°39' W 001°00'0 0.2
2014-Jun-14 17:32N 50°39' W 001°01'0 0.1
2014-Jun-14 16:32N 50°39' W 001°01'0 0.0
2014-Jun-14 15:32N 50°39' W 001°01'0 0.0
2014-Jun-14 14:32N 50°39' W 001°01'0 0.0
2014-Jun-14 13:32N 50°39' W 001°01'0 0.0
2014-Jun-14 12:32N 50°39' W 001°01'0 0.1
2014-Jun-14 11:32N 50°39' W 001°01'0 0.1
2014-Jun-14 10:32N 50°39' W 001°00'0 0.0
2014-Jun-14 09:32N 50°39' W 001°00'0 0.0
2014-Jun-14 08:32N 50°39' W 001°00'0 0.0
2014-Jun-14 07:32N 50°39' W 001°00'0 0.0
2014-Jun-14 06:32N 50°39' W 001°00'0 0.2
2014-Jun-14 05:32N 50°39' W 001°01'0 0.1
2014-Jun-14 04:32N 50°39' W 001°01'0 0.0
2014-Jun-14 03:32N 50°39' W 001°01'0 0.0
2014-Jun-14 02:29N 50°39' W 001°01'0 0.1
2014-Jun-14 01:32N 50°39' W 001°01'0 0.0
2014-Jun-14 00:32N 50°39' W 001°01'0 0.1
2014-Jun-13 23:32N 50°39' W 001°00'0 0.2
2014-Jun-13 22:32N 50°39' W 001°00'0 0.1
2014-Jun-13 21:32N 50°39' W 001°00'0 0.0
2014-Jun-13 20:29N 50°39' W 001°00'0 0.0
2014-Jun-13 19:29N 50°39' W 001°00'0 0.0
2014-Jun-13 18:32N 50°39' W 001°00'0 0.0
2014-Jun-13 17:32N 50°39' W 001°00'0 0.2
2014-Jun-13 16:32N 50°39' W 001°01'0 0.1
2014-Jun-13 15:32N 50°39' W 001°01'0 0.0
2014-Jun-13 14:32N 50°39' W 001°01'0 0.0
2014-Jun-13 13:32N 50°39' W 001°01'0 0.0
2014-Jun-13 12:32N 50°39' W 001°01'0 0.0
2014-Jun-13 11:32N 50°39' W 001°01'0 0.1
2014-Jun-13 10:32N 50°39' W 001°00'0 0.1
2014-Jun-13 09:32N 50°39' W 001°00'0 0.0
2014-Jun-13 08:32N 50°39' W 001°00'0 0.0
2014-Jun-13 07:32N 50°39' W 001°00'0 0.0
2014-Jun-13 06:32N 50°39' W 001°00'0 0.0
2014-Jun-13 05:32N 50°39' W 001°00'0 0.2
2014-Jun-13 04:32N 50°39' W 001°00'0 0.1
2014-Jun-13 03:32N 50°39' W 001°01'0 0.0
2014-Jun-13 02:32N 50°39' W 001°01'0 0.0
2014-Jun-13 01:32N 50°39' W 001°01'0 0.0
2014-Jun-13 00:32N 50°39' W 001°01'0 0.0
2014-Jun-12 23:32N 50°39' W 001°01'0 0.1
2014-Jun-12 22:32N 50°39' W 001°01'0 0.1
2014-Jun-12 21:33N 50°39' W 001°00'0 0.0
2014-Jun-12 20:32N 50°39' W 001°00'0 0.0
2014-Jun-12 19:32N 50°39' W 001°00'0 0.0
2014-Jun-12 18:32N 50°39' W 001°00'0 0.0
2014-Jun-12 17:32N 50°39' W 001°00'0 0.1
2014-Jun-12 16:29N 50°39' W 001°00'0 0.2
2014-Jun-12 15:32N 50°39' W 001°01'0 0.0
2014-Jun-12 14:32N 50°39' W 001°01'0 0.0
2014-Jun-12 13:32N 50°39' W 001°01'0 0.0
2014-Jun-12 12:32N 50°39' W 001°01'0 0.0
2014-Jun-12 11:32N 50°39' W 001°01'0 0.0
2014-Jun-12 10:32N 50°39' W 001°01'0 0.2
2014-Jun-12 09:32N 50°39' W 001°00'0 0.0
2014-Jun-12 08:32N 50°39' W 001°00'0 0.0
2014-Jun-12 07:32N 50°39' W 001°00'0 0.0
2014-Jun-12 06:32N 50°39' W 001°00'0 0.0
2014-Jun-12 05:32N 50°39' W 001°00'0 0.0
2014-Jun-12 04:32N 50°39' W 001°00'0 0.1
2014-Jun-12 03:32N 50°39' W 001°00'0 0.1
2014-Jun-12 02:32N 50°39' W 001°01'0 0.0
2014-Jun-12 01:32N 50°39' W 001°01'0 0.0
2014-Jun-12 00:32N 50°39' W 001°01'0 0.0
2014-Jun-11 23:32N 50°39' W 001°01'0 0.0
2014-Jun-11 22:32N 50°39' W 001°01'0 0.2
2014-Jun-11 21:32N 50°39' W 001°00'0 0.0
2014-Jun-11 20:26N 50°39' W 001°00'0 0.0
2014-Jun-11 19:32N 50°39' W 001°00'0 0.0
2014-Jun-11 18:32N 50°39' W 001°00'0 0.0
2014-Jun-11 17:32N 50°39' W 001°00'0 0.0
2014-Jun-11 16:29N 50°39' W 001°00'0 0.0
2014-Jun-11 15:29N 50°39' W 001°00'0 0.1
2014-Jun-11 13:32N 50°39' W 001°01'0 0.0
2014-Jun-11 12:32N 50°39' W 001°01'0 0.0
2014-Jun-11 11:29N 50°39' W 001°01'0 0.0
2014-Jun-11 10:32N 50°39' W 001°01'0 0.1
2014-Jun-11 09:29N 50°39' W 001°00'0 0.1
2014-Jun-11 08:32N 50°39' W 001°00'0 0.0
2014-Jun-11 07:32N 50°39' W 001°00'0 0.0
2014-Jun-11 06:32N 50°39' W 001°00'0 0.0
2014-Jun-11 05:32N 50°39' W 001°00'0 0.0
2014-Jun-11 04:32N 50°39' W 001°00'0 0.0
2014-Jun-11 03:32N 50°39' W 001°00'0 0.1
2014-Jun-11 02:32N 50°39' W 001°00'0 0.2
2014-Jun-11 01:32N 50°39' W 001°01'0 0.0
2014-Jun-11 00:32N 50°39' W 001°01'0 0.0
2014-Jun-10 23:32N 50°39' W 001°01'0 0.0
2014-Jun-10 22:32N 50°39' W 001°01'0 0.1
2014-Jun-10 21:32N 50°39' W 001°01'0 0.2
2014-Jun-10 20:32N 50°39' W 001°00'0 0.0
2014-Jun-10 19:33N 50°39' W 001°00'0 0.0
2014-Jun-10 18:32N 50°39' W 001°00'0 0.0
2014-Jun-10 17:32N 50°39' W 001°00'0 0.0
2014-Jun-10 16:32N 50°39' W 001°00'0 0.0
2014-Jun-10 15:32N 50°39' W 001°00'0 0.0
2014-Jun-10 14:32N 50°39' W 001°00'0 0.2
2014-Jun-10 13:32N 50°39' W 001°01'0 0.0
2014-Jun-10 12:32N 50°39' W 001°01'0 0.0
2014-Jun-10 11:32N 50°39' W 001°01'0 0.0
2014-Jun-10 10:32N 50°39' W 001°01'0 0.1
2014-Jun-10 09:32N 50°39' W 001°01'0 0.2
2014-Jun-10 08:32N 50°39' W 001°00'0 0.0
2014-Jun-10 07:32N 50°39' W 001°00'0 0.0
2014-Jun-10 06:32N 50°39' W 001°00'0 0.0
2014-Jun-10 03:32N 50°39' W 001°00'0 0.0
2014-Jun-10 02:32N 50°39' W 001°00'0 0.2
2014-Jun-10 01:32N 50°39' W 001°01'0 0.0
2014-Jun-10 00:32N 50°39' W 001°01'0 0.0
2014-Jun-09 23:32N 50°39' W 001°01'0 0.0
2014-Jun-09 22:32N 50°39' W 001°01'0 0.0
2014-Jun-09 21:32N 50°39' W 001°01'0 0.2
2014-Jun-09 20:33N 50°39' W 001°00'0 0.1
2014-Jun-09 19:32N 50°39' W 001°00'0 0.0
2014-Jun-09 18:32N 50°39' W 001°00'0 0.0
2014-Jun-09 17:32N 50°39' W 001°00'1 0.9
2014-Jun-09 16:34N 50°39' W 000°59'8 8.0
2014-Jun-09 15:33N 50°31' W 001°05'1515.2
2014-Jun-09 14:33N 50°29' W 001°28'1414.0
2014-Jun-09 13:33N 50°25' W 001°49'1313.2
2014-Jun-09 12:33N 50°21' W 002°09'1312.5
2014-Jun-09 11:32N 50°18' W 002°29'  

Dump ship's entire track history